sensor_id;sensor_type;location;lat;lon;timestamp;P1;durP1;ratioP1;P2;durP2;ratioP2
48268;SDS011;34088;52.232;5.196;2023-04-24T00:01:54;6.35;;;3.78;;
48268;SDS011;34088;52.232;5.196;2023-04-24T00:04:20;6.03;;;2.83;;
48268;SDS011;34088;52.232;5.196;2023-04-24T00:06:46;2.72;;;2.00;;
48268;SDS011;34088;52.232;5.196;2023-04-24T00:09:14;2.55;;;1.30;;
48268;SDS011;34088;52.232;5.196;2023-04-24T00:11:40;1.77;;;1.20;;
48268;SDS011;34088;52.232;5.196;2023-04-24T00:14:06;1.50;;;0.88;;
48268;SDS011;34088;52.232;5.196;2023-04-24T00:16:31;1.73;;;0.80;;
48268;SDS011;34088;52.232;5.196;2023-04-24T00:31:46;1.75;;;1.50;;
48268;SDS011;34088;52.232;5.196;2023-04-24T00:34:12;1.60;;;1.25;;
48268;SDS011;34088;52.232;5.196;2023-04-24T00:36:37;1.88;;;0.90;;
48268;SDS011;34088;52.232;5.196;2023-04-24T00:39:03;1.67;;;1.23;;
48268;SDS011;34088;52.232;5.196;2023-04-24T00:41:28;2.83;;;1.50;;
48268;SDS011;34088;52.232;5.196;2023-04-24T00:43:55;2.47;;;1.33;;
48268;SDS011;34088;52.232;5.196;2023-04-24T00:46:20;2.85;;;1.90;;
48268;SDS011;34088;52.232;5.196;2023-04-24T00:48:46;3.88;;;2.20;;
48268;SDS011;34088;52.232;5.196;2023-04-24T00:51:12;4.55;;;2.70;;
48268;SDS011;34088;52.232;5.196;2023-04-24T00:53:37;3.80;;;2.70;;
48268;SDS011;34088;52.232;5.196;2023-04-24T00:56:03;3.40;;;2.67;;
48268;SDS011;34088;52.232;5.196;2023-04-24T00:58:30;4.32;;;2.20;;
48268;SDS011;34088;52.232;5.196;2023-04-24T01:00:56;2.85;;;2.25;;
48268;SDS011;34088;52.232;5.196;2023-04-24T01:03:24;4.57;;;2.30;;
48268;SDS011;34088;52.232;5.196;2023-04-24T01:05:51;5.65;;;2.55;;
48268;SDS011;34088;52.232;5.196;2023-04-24T01:08:18;4.30;;;2.35;;
48268;SDS011;34088;52.232;5.196;2023-04-24T01:10:44;4.47;;;2.30;;
48268;SDS011;34088;52.232;5.196;2023-04-24T01:13:11;4.50;;;2.20;;
48268;SDS011;34088;52.232;5.196;2023-04-24T01:15:36;3.30;;;1.95;;
48268;SDS011;34088;52.232;5.196;2023-04-24T01:18:02;3.05;;;1.75;;
48268;SDS011;34088;52.232;5.196;2023-04-24T01:20:28;3.70;;;1.65;;
48268;SDS011;34088;52.232;5.196;2023-04-24T01:22:55;3.92;;;1.40;;
48268;SDS011;34088;52.232;5.196;2023-04-24T01:25:21;3.97;;;1.67;;
48268;SDS011;34088;52.232;5.196;2023-04-24T01:27:47;4.03;;;1.42;;
48268;SDS011;34088;52.232;5.196;2023-04-24T01:30:13;4.15;;;1.55;;
48268;SDS011;34088;52.232;5.196;2023-04-24T01:32:39;3.05;;;1.40;;
48268;SDS011;34088;52.232;5.196;2023-04-24T01:35:06;2.97;;;1.40;;
48268;SDS011;34088;52.232;5.196;2023-04-24T01:37:32;2.72;;;1.40;;
48268;SDS011;34088;52.232;5.196;2023-04-24T01:39:58;2.25;;;1.35;;
48268;SDS011;34088;52.232;5.196;2023-04-24T01:42:24;4.65;;;1.73;;
48268;SDS011;34088;52.232;5.196;2023-04-24T01:44:49;3.40;;;1.75;;
48268;SDS011;34088;52.232;5.196;2023-04-24T01:47:16;2.47;;;1.80;;
48268;SDS011;34088;52.232;5.196;2023-04-24T01:49:42;2.65;;;1.80;;
48268;SDS011;34088;52.232;5.196;2023-04-24T01:52:07;3.00;;;2.00;;
48268;SDS011;34088;52.232;5.196;2023-04-24T01:54:33;2.33;;;1.70;;
48268;SDS011;34088;52.232;5.196;2023-04-24T01:56:58;4.10;;;1.70;;
48268;SDS011;34088;52.232;5.196;2023-04-24T01:59:25;3.00;;;2.00;;
48268;SDS011;34088;52.232;5.196;2023-04-24T02:01:53;4.65;;;2.08;;
48268;SDS011;34088;52.232;5.196;2023-04-24T02:04:18;3.03;;;1.70;;
48268;SDS011;34088;52.232;5.196;2023-04-24T02:06:44;4.18;;;1.85;;
48268;SDS011;34088;52.232;5.196;2023-04-24T02:09:10;3.03;;;1.88;;
48268;SDS011;34088;52.232;5.196;2023-04-24T02:11:36;4.88;;;2.00;;
48268;SDS011;34088;52.232;5.196;2023-04-24T02:14:01;3.25;;;1.80;;
48268;SDS011;34088;52.232;5.196;2023-04-24T02:16:27;2.92;;;1.80;;
48268;SDS011;34088;52.232;5.196;2023-04-24T02:18:57;3.05;;;1.52;;
48268;SDS011;34088;52.232;5.196;2023-04-24T02:21:22;3.95;;;1.52;;
48268;SDS011;34088;52.232;5.196;2023-04-24T02:23:48;3.63;;;1.70;;
48268;SDS011;34088;52.232;5.196;2023-04-24T02:26:13;3.20;;;1.65;;
48268;SDS011;34088;52.232;5.196;2023-04-24T02:28:39;4.50;;;1.73;;
48268;SDS011;34088;52.232;5.196;2023-04-24T02:31:04;2.42;;;1.55;;
48268;SDS011;34088;52.232;5.196;2023-04-24T02:33:31;2.03;;;1.10;;
48268;SDS011;34088;52.232;5.196;2023-04-24T02:35:56;3.65;;;1.20;;
48268;SDS011;34088;52.232;5.196;2023-04-24T02:38:22;2.97;;;1.23;;
48268;SDS011;34088;52.232;5.196;2023-04-24T02:40:47;2.03;;;1.15;;
48268;SDS011;34088;52.232;5.196;2023-04-24T02:43:13;2.78;;;1.40;;
48268;SDS011;34088;52.232;5.196;2023-04-24T02:45:38;2.40;;;1.10;;
48268;SDS011;34088;52.232;5.196;2023-04-24T02:48:04;4.43;;;1.38;;
48268;SDS011;34088;52.232;5.196;2023-04-24T02:50:29;2.30;;;1.27;;
48268;SDS011;34088;52.232;5.196;2023-04-24T02:52:55;1.92;;;1.52;;
48268;SDS011;34088;52.232;5.196;2023-04-24T02:55:21;2.97;;;1.40;;
48268;SDS011;34088;52.232;5.196;2023-04-24T02:57:46;3.35;;;1.60;;
48268;SDS011;34088;52.232;5.196;2023-04-24T03:00:12;3.15;;;2.17;;
48268;SDS011;34088;52.232;5.196;2023-04-24T03:02:38;4.82;;;2.47;;
48268;SDS011;34088;52.232;5.196;2023-04-24T03:05:04;5.05;;;2.50;;
48268;SDS011;34088;52.232;5.196;2023-04-24T03:07:29;3.03;;;2.22;;
48268;SDS011;34088;52.232;5.196;2023-04-24T03:09:56;4.72;;;2.83;;
48268;SDS011;34088;52.232;5.196;2023-04-24T03:12:23;4.70;;;2.55;;
48268;SDS011;34088;52.232;5.196;2023-04-24T03:14:49;5.40;;;2.95;;
48268;SDS011;34088;52.232;5.196;2023-04-24T03:17:14;4.10;;;2.90;;
48268;SDS011;34088;52.232;5.196;2023-04-24T03:19:40;5.13;;;2.80;;
48268;SDS011;34088;52.232;5.196;2023-04-24T03:22:05;4.28;;;2.83;;
48268;SDS011;34088;52.232;5.196;2023-04-24T03:24:31;5.40;;;3.20;;
48268;SDS011;34088;52.232;5.196;2023-04-24T03:26:57;4.70;;;3.10;;
48268;SDS011;34088;52.232;5.196;2023-04-24T03:29:22;3.97;;;3.00;;
48268;SDS011;34088;52.232;5.196;2023-04-24T03:31:48;4.63;;;2.70;;
48268;SDS011;34088;52.232;5.196;2023-04-24T03:34:13;4.70;;;2.75;;
48268;SDS011;34088;52.232;5.196;2023-04-24T03:36:39;4.70;;;2.72;;
48268;SDS011;34088;52.232;5.196;2023-04-24T03:39:04;5.53;;;2.95;;
48268;SDS011;34088;52.232;5.196;2023-04-24T03:41:30;4.82;;;3.00;;
48268;SDS011;34088;52.232;5.196;2023-04-24T03:43:56;5.03;;;3.00;;
48268;SDS011;34088;52.232;5.196;2023-04-24T03:46:21;5.22;;;3.20;;
48268;SDS011;34088;52.232;5.196;2023-04-24T03:48:47;5.53;;;2.90;;
48268;SDS011;34088;52.232;5.196;2023-04-24T03:51:12;3.78;;;2.85;;
48268;SDS011;34088;52.232;5.196;2023-04-24T03:53:38;6.03;;;3.05;;
48268;SDS011;34088;52.232;5.196;2023-04-24T03:56:03;5.60;;;3.17;;
48268;SDS011;34088;52.232;5.196;2023-04-24T03:58:29;5.88;;;3.30;;
48268;SDS011;34088;52.232;5.196;2023-04-24T04:00:55;6.82;;;3.00;;
48268;SDS011;34088;52.232;5.196;2023-04-24T04:03:23;4.72;;;2.20;;
48268;SDS011;34088;52.232;5.196;2023-04-24T04:05:48;3.85;;;2.20;;
48268;SDS011;34088;52.232;5.196;2023-04-24T04:08:14;4.82;;;2.10;;
48268;SDS011;34088;52.232;5.196;2023-04-24T04:10:39;3.28;;;2.08;;
48268;SDS011;34088;52.232;5.196;2023-04-24T04:13:05;4.70;;;2.20;;
48268;SDS011;34088;52.232;5.196;2023-04-24T04:15:31;3.95;;;2.20;;
48268;SDS011;34088;52.232;5.196;2023-04-24T04:17:57;5.80;;;2.50;;
48268;SDS011;34088;52.232;5.196;2023-04-24T04:20:22;4.03;;;2.40;;
48268;SDS011;34088;52.232;5.196;2023-04-24T04:22:48;7.63;;;2.50;;
48268;SDS011;34088;52.232;5.196;2023-04-24T04:25:14;3.53;;;2.40;;
48268;SDS011;34088;52.232;5.196;2023-04-24T04:27:39;3.97;;;2.53;;
48268;SDS011;34088;52.232;5.196;2023-04-24T04:30:06;5.18;;;2.70;;
48268;SDS011;34088;52.232;5.196;2023-04-24T04:32:34;4.47;;;2.75;;
48268;SDS011;34088;52.232;5.196;2023-04-24T04:35:00;5.10;;;2.95;;
48268;SDS011;34088;52.232;5.196;2023-04-24T04:37:28;5.00;;;3.08;;
48268;SDS011;34088;52.232;5.196;2023-04-24T04:39:58;6.72;;;3.20;;
48268;SDS011;34088;52.232;5.196;2023-04-24T04:42:24;4.00;;;2.80;;
48268;SDS011;34088;52.232;5.196;2023-04-24T04:44:50;4.22;;;3.00;;
48268;SDS011;34088;52.232;5.196;2023-04-24T04:47:16;3.88;;;3.05;;
48268;SDS011;34088;52.232;5.196;2023-04-24T04:49:42;6.15;;;2.78;;
48268;SDS011;34088;52.232;5.196;2023-04-24T04:52:08;7.05;;;3.33;;
48268;SDS011;34088;52.232;5.196;2023-04-24T04:54:34;5.07;;;3.15;;
48268;SDS011;34088;52.232;5.196;2023-04-24T04:56:59;6.40;;;3.33;;
48268;SDS011;34088;52.232;5.196;2023-04-24T04:59:25;7.20;;;3.47;;
48268;SDS011;34088;52.232;5.196;2023-04-24T05:01:51;5.70;;;3.05;;
48268;SDS011;34088;52.232;5.196;2023-04-24T05:04:17;3.72;;;2.30;;
48268;SDS011;34088;52.232;5.196;2023-04-24T05:06:43;4.10;;;2.00;;
48268;SDS011;34088;52.232;5.196;2023-04-24T05:09:08;3.20;;;2.33;;
48268;SDS011;34088;52.232;5.196;2023-04-24T05:11:34;4.65;;;2.65;;
48268;SDS011;34088;52.232;5.196;2023-04-24T05:14:00;4.55;;;2.53;;
48268;SDS011;34088;52.232;5.196;2023-04-24T05:16:25;4.40;;;2.40;;
48268;SDS011;34088;52.232;5.196;2023-04-24T05:18:51;4.43;;;2.15;;
48268;SDS011;34088;52.232;5.196;2023-04-24T05:21:17;4.50;;;1.75;;
48268;SDS011;34088;52.232;5.196;2023-04-24T05:23:43;3.17;;;1.50;;
48268;SDS011;34088;52.232;5.196;2023-04-24T05:26:08;2.65;;;1.30;;
48268;SDS011;34088;52.232;5.196;2023-04-24T05:28:34;2.90;;;1.20;;
48268;SDS011;34088;52.232;5.196;2023-04-24T05:31:01;1.80;;;0.93;;
48268;SDS011;34088;52.232;5.196;2023-04-24T05:33:27;2.53;;;1.30;;
48268;SDS011;34088;52.232;5.196;2023-04-24T05:35:52;5.40;;;1.30;;
48268;SDS011;34088;52.232;5.196;2023-04-24T05:38:18;2.28;;;1.02;;
48268;SDS011;34088;52.232;5.196;2023-04-24T05:40:44;1.00;;;0.90;;
48268;SDS011;34088;52.232;5.196;2023-04-24T05:43:10;2.85;;;1.38;;
48268;SDS011;34088;52.232;5.196;2023-04-24T05:45:37;2.33;;;1.10;;
48268;SDS011;34088;52.232;5.196;2023-04-24T05:48:03;3.15;;;1.15;;
48268;SDS011;34088;52.232;5.196;2023-04-24T05:50:29;3.38;;;1.10;;
48268;SDS011;34088;52.232;5.196;2023-04-24T05:52:55;2.13;;;0.80;;
48268;SDS011;34088;52.232;5.196;2023-04-24T05:55:23;2.30;;;0.80;;
48268;SDS011;34088;52.232;5.196;2023-04-24T05:57:49;2.67;;;0.88;;
48268;SDS011;34088;52.232;5.196;2023-04-24T06:00:15;2.75;;;0.95;;
48268;SDS011;34088;52.232;5.196;2023-04-24T06:02:40;2.05;;;1.00;;
48268;SDS011;34088;52.232;5.196;2023-04-24T06:05:06;1.35;;;0.68;;
48268;SDS011;34088;52.232;5.196;2023-04-24T06:07:33;4.35;;;2.08;;
48268;SDS011;34088;52.232;5.196;2023-04-24T06:09:59;6.15;;;3.85;;
48268;SDS011;34088;52.232;5.196;2023-04-24T06:12:25;10.82;;;6.50;;
48268;SDS011;34088;52.232;5.196;2023-04-24T06:14:51;19.70;;;9.98;;
48268;SDS011;34088;52.232;5.196;2023-04-24T06:17:16;20.15;;;11.95;;
48268;SDS011;34088;52.232;5.196;2023-04-24T06:19:43;23.15;;;13.77;;
48268;SDS011;34088;52.232;5.196;2023-04-24T06:22:09;24.73;;;13.32;;
48268;SDS011;34088;52.232;5.196;2023-04-24T06:24:34;22.75;;;13.13;;
48268;SDS011;34088;52.232;5.196;2023-04-24T06:27:00;24.83;;;13.80;;
48268;SDS011;34088;52.232;5.196;2023-04-24T06:29:26;26.65;;;15.63;;
48268;SDS011;34088;52.232;5.196;2023-04-24T06:31:52;28.40;;;15.68;;
48268;SDS011;34088;52.232;5.196;2023-04-24T06:34:18;28.15;;;16.02;;
48268;SDS011;34088;52.232;5.196;2023-04-24T06:36:43;29.35;;;15.65;;
48268;SDS011;34088;52.232;5.196;2023-04-24T06:39:09;27.45;;;16.42;;
48268;SDS011;34088;52.232;5.196;2023-04-24T06:41:35;28.33;;;15.63;;
48268;SDS011;34088;52.232;5.196;2023-04-24T06:44:01;29.08;;;15.85;;
48268;SDS011;34088;52.232;5.196;2023-04-24T06:46:26;27.90;;;14.93;;
48268;SDS011;34088;52.232;5.196;2023-04-24T06:48:53;27.00;;;14.50;;
48268;SDS011;34088;52.232;5.196;2023-04-24T06:51:21;26.17;;;13.30;;
48268;SDS011;34088;52.232;5.196;2023-04-24T06:53:51;23.90;;;12.50;;
48268;SDS011;34088;52.232;5.196;2023-04-24T06:56:17;20.42;;;10.50;;
48268;SDS011;34088;52.232;5.196;2023-04-24T06:58:42;20.67;;;10.27;;
48268;SDS011;34088;52.232;5.196;2023-04-24T07:01:08;20.55;;;10.20;;
48268;SDS011;34088;52.232;5.196;2023-04-24T07:03:34;21.83;;;11.48;;
48268;SDS011;34088;52.232;5.196;2023-04-24T07:06:00;26.13;;;11.10;;
48268;SDS011;34088;52.232;5.196;2023-04-24T07:08:26;18.17;;;11.35;;
48268;SDS011;34088;52.232;5.196;2023-04-24T07:10:51;23.23;;;12.45;;
48268;SDS011;34088;52.232;5.196;2023-04-24T07:13:17;23.48;;;12.70;;
48268;SDS011;34088;52.232;5.196;2023-04-24T07:15:42;23.65;;;11.32;;
48268;SDS011;34088;52.232;5.196;2023-04-24T07:18:08;19.40;;;11.68;;
48268;SDS011;34088;52.232;5.196;2023-04-24T07:20:34;22.67;;;11.27;;
48268;SDS011;34088;52.232;5.196;2023-04-24T07:23:00;17.88;;;10.50;;
48268;SDS011;34088;52.232;5.196;2023-04-24T07:25:25;22.08;;;10.95;;
48268;SDS011;34088;52.232;5.196;2023-04-24T07:27:51;18.92;;;11.05;;
48268;SDS011;34088;52.232;5.196;2023-04-24T07:30:17;23.30;;;11.65;;
48268;SDS011;34088;52.232;5.196;2023-04-24T07:32:43;22.00;;;10.98;;
48268;SDS011;34088;52.232;5.196;2023-04-24T07:35:09;24.13;;;11.35;;
48268;SDS011;34088;52.232;5.196;2023-04-24T07:37:35;20.92;;;10.70;;
48268;SDS011;34088;52.232;5.196;2023-04-24T07:40:01;19.75;;;11.57;;
48268;SDS011;34088;52.232;5.196;2023-04-24T07:42:26;25.52;;;10.43;;
48268;SDS011;34088;52.232;5.196;2023-04-24T07:44:53;21.45;;;9.25;;
48268;SDS011;34088;52.232;5.196;2023-04-24T07:47:18;20.67;;;9.90;;
48268;SDS011;34088;52.232;5.196;2023-04-24T07:49:44;24.73;;;10.23;;
48268;SDS011;34088;52.232;5.196;2023-04-24T07:52:10;17.23;;;9.25;;
48268;SDS011;34088;52.232;5.196;2023-04-24T07:54:35;23.58;;;8.32;;
48268;SDS011;34088;52.232;5.196;2023-04-24T07:57:02;15.02;;;6.53;;
48268;SDS011;34088;52.232;5.196;2023-04-24T07:59:27;20.45;;;6.28;;
48268;SDS011;34088;52.232;5.196;2023-04-24T08:01:53;18.95;;;5.97;;
48268;SDS011;34088;52.232;5.196;2023-04-24T08:04:19;21.45;;;6.43;;
48268;SDS011;34088;52.232;5.196;2023-04-24T08:06:46;19.75;;;6.38;;
48268;SDS011;34088;52.232;5.196;2023-04-24T08:09:12;19.92;;;6.93;;
48268;SDS011;34088;52.232;5.196;2023-04-24T08:11:38;20.65;;;7.55;;
48268;SDS011;34088;52.232;5.196;2023-04-24T08:14:03;16.67;;;5.07;;
48268;SDS011;34088;52.232;5.196;2023-04-24T08:16:29;17.92;;;5.45;;
48268;SDS011;34088;52.232;5.196;2023-04-24T08:18:54;19.98;;;5.35;;
48268;SDS011;34088;52.232;5.196;2023-04-24T08:21:20;15.70;;;4.85;;
48268;SDS011;34088;52.232;5.196;2023-04-24T08:23:46;19.35;;;5.57;;
48268;SDS011;34088;52.232;5.196;2023-04-24T08:26:12;19.05;;;5.75;;
48268;SDS011;34088;52.232;5.196;2023-04-24T08:28:38;20.70;;;5.38;;
48268;SDS011;34088;52.232;5.196;2023-04-24T08:31:03;24.65;;;6.22;;
48268;SDS011;34088;52.232;5.196;2023-04-24T08:33:29;23.45;;;5.15;;
48268;SDS011;34088;52.232;5.196;2023-04-24T08:35:59;24.65;;;5.97;;
48268;SDS011;34088;52.232;5.196;2023-04-24T08:38:28;26.70;;;4.95;;
48268;SDS011;34088;52.232;5.196;2023-04-24T08:40:54;16.98;;;3.45;;
48268;SDS011;34088;52.232;5.196;2023-04-24T08:43:21;16.48;;;3.88;;
48268;SDS011;34088;52.232;5.196;2023-04-24T08:45:48;11.70;;;3.67;;
48268;SDS011;34088;52.232;5.196;2023-04-24T08:48:13;18.67;;;3.97;;
48268;SDS011;34088;52.232;5.196;2023-04-24T08:50:40;25.25;;;3.70;;
48268;SDS011;34088;52.232;5.196;2023-04-24T08:53:07;23.15;;;3.45;;
48268;SDS011;34088;52.232;5.196;2023-04-24T08:55:33;14.00;;;3.58;;
48268;SDS011;34088;52.232;5.196;2023-04-24T08:57:59;14.73;;;3.47;;
48268;SDS011;34088;52.232;5.196;2023-04-24T09:00:26;14.88;;;3.15;;
48268;SDS011;34088;52.232;5.196;2023-04-24T09:02:53;17.25;;;3.60;;
48268;SDS011;34088;52.232;5.196;2023-04-24T09:05:19;10.88;;;3.40;;
48268;SDS011;34088;52.232;5.196;2023-04-24T09:07:49;18.30;;;3.70;;
48268;SDS011;34088;52.232;5.196;2023-04-24T09:10:17;16.13;;;3.15;;
48268;SDS011;34088;52.232;5.196;2023-04-24T09:12:43;17.08;;;4.10;;
48268;SDS011;34088;52.232;5.196;2023-04-24T09:15:09;11.27;;;3.03;;
48268;SDS011;34088;52.232;5.196;2023-04-24T09:17:35;14.20;;;3.13;;
48268;SDS011;34088;52.232;5.196;2023-04-24T09:20:01;13.43;;;3.47;;
48268;SDS011;34088;52.232;5.196;2023-04-24T09:22:29;22.13;;;3.97;;
48268;SDS011;34088;52.232;5.196;2023-04-24T09:25:13;9.52;;;3.20;;
48268;SDS011;34088;52.232;5.196;2023-04-24T09:27:43;13.38;;;3.40;;
48268;SDS011;34088;52.232;5.196;2023-04-24T09:30:10;14.77;;;3.38;;
48268;SDS011;34088;52.232;5.196;2023-04-24T09:32:36;13.50;;;3.25;;
48268;SDS011;34088;52.232;5.196;2023-04-24T09:35:05;14.32;;;3.20;;
48268;SDS011;34088;52.232;5.196;2023-04-24T09:37:34;15.52;;;4.03;;
48268;SDS011;34088;52.232;5.196;2023-04-24T09:40:19;16.88;;;3.97;;
48268;SDS011;34088;52.232;5.196;2023-04-24T09:42:56;21.42;;;4.00;;
48268;SDS011;34088;52.232;5.196;2023-04-24T09:45:27;17.77;;;3.90;;
48268;SDS011;34088;52.232;5.196;2023-04-24T09:47:54;17.25;;;4.07;;
48268;SDS011;34088;52.232;5.196;2023-04-24T09:50:20;10.35;;;2.90;;
48268;SDS011;34088;52.232;5.196;2023-04-24T09:52:59;10.23;;;3.03;;
48268;SDS011;34088;52.232;5.196;2023-04-24T09:55:29;10.23;;;2.60;;
48268;SDS011;34088;52.232;5.196;2023-04-24T10:00:26;8.00;;;2.70;;
48268;SDS011;34088;52.232;5.196;2023-04-24T10:05:27;12.35;;;2.58;;
48268;SDS011;34088;52.232;5.196;2023-04-24T10:08:07;8.98;;;2.30;;
48268;SDS011;34088;52.232;5.196;2023-04-24T10:10:35;10.05;;;2.22;;
48268;SDS011;34088;52.232;5.196;2023-04-24T10:13:04;6.80;;;2.10;;
48268;SDS011;34088;52.232;5.196;2023-04-24T10:15:29;6.72;;;2.17;;
48268;SDS011;34088;52.232;5.196;2023-04-24T10:17:55;8.63;;;2.45;;
48268;SDS011;34088;52.232;5.196;2023-04-24T10:20:24;7.47;;;2.55;;
48268;SDS011;34088;52.232;5.196;2023-04-24T10:22:51;7.68;;;2.38;;
48268;SDS011;34088;52.232;5.196;2023-04-24T10:25:18;9.18;;;2.25;;
48268;SDS011;34088;52.232;5.196;2023-04-24T10:27:45;6.30;;;1.98;;
48268;SDS011;34088;52.232;5.196;2023-04-24T10:30:12;4.40;;;1.55;;
48268;SDS011;34088;52.232;5.196;2023-04-24T10:32:38;6.47;;;1.85;;
48268;SDS011;34088;52.232;5.196;2023-04-24T10:35:03;5.20;;;1.20;;
48268;SDS011;34088;52.232;5.196;2023-04-24T10:37:33;9.48;;;2.15;;
48268;SDS011;34088;52.232;5.196;2023-04-24T10:40:02;8.90;;;1.38;;
48268;SDS011;34088;52.232;5.196;2023-04-24T10:42:27;9.73;;;1.70;;
48268;SDS011;34088;52.232;5.196;2023-04-24T10:44:53;10.10;;;2.15;;
48268;SDS011;34088;52.232;5.196;2023-04-24T10:47:20;9.20;;;1.67;;
48268;SDS011;34088;52.232;5.196;2023-04-24T10:49:45;6.90;;;1.48;;
48268;SDS011;34088;52.232;5.196;2023-04-24T10:52:11;6.28;;;1.95;;
48268;SDS011;34088;52.232;5.196;2023-04-24T10:54:46;5.68;;;1.60;;
48268;SDS011;34088;52.232;5.196;2023-04-24T10:59:47;7.15;;;1.55;;
48268;SDS011;34088;52.232;5.196;2023-04-24T11:02:14;7.07;;;1.40;;
48268;SDS011;34088;52.232;5.196;2023-04-24T11:04:41;7.78;;;1.90;;
48268;SDS011;34088;52.232;5.196;2023-04-24T11:07:08;5.72;;;1.30;;
48268;SDS011;34088;52.232;5.196;2023-04-24T11:09:34;9.05;;;1.60;;
48268;SDS011;34088;52.232;5.196;2023-04-24T11:17:33;5.55;;;1.00;;
48268;SDS011;34088;52.232;5.196;2023-04-24T11:20:06;5.47;;;1.00;;
48268;SDS011;34088;52.232;5.196;2023-04-24T11:22:34;3.35;;;0.80;;
48268;SDS011;34088;52.232;5.196;2023-04-24T11:25:01;5.25;;;0.93;;
48268;SDS011;34088;52.232;5.196;2023-04-24T11:27:29;3.53;;;0.95;;
48268;SDS011;34088;52.232;5.196;2023-04-24T11:32:26;2.30;;;0.70;;
48268;SDS011;34088;52.232;5.196;2023-04-24T11:35:02;4.00;;;0.82;;
48268;SDS011;34088;52.232;5.196;2023-04-24T11:37:33;3.13;;;1.00;;
48268;SDS011;34088;52.232;5.196;2023-04-24T11:40:01;4.72;;;0.93;;
48268;SDS011;34088;52.232;5.196;2023-04-24T11:42:28;6.30;;;1.10;;
48268;SDS011;34088;52.232;5.196;2023-04-24T11:47:45;4.78;;;1.13;;
48268;SDS011;34088;52.232;5.196;2023-04-24T11:50:12;4.65;;;1.10;;
48268;SDS011;34088;52.232;5.196;2023-04-24T11:52:39;5.72;;;1.20;;
48268;SDS011;34088;52.232;5.196;2023-04-24T11:55:27;4.25;;;1.10;;
48268;SDS011;34088;52.232;5.196;2023-04-24T11:57:58;7.55;;;1.63;;
48268;SDS011;34088;52.232;5.196;2023-04-24T12:00:25;8.20;;;1.52;;
48268;SDS011;34088;52.232;5.196;2023-04-24T12:03:02;8.13;;;1.73;;
48268;SDS011;34088;52.232;5.196;2023-04-24T12:05:32;10.40;;;1.70;;
48268;SDS011;34088;52.232;5.196;2023-04-24T12:07:57;5.45;;;1.10;;
48268;SDS011;34088;52.232;5.196;2023-04-24T12:10:23;8.23;;;1.77;;
48268;SDS011;34088;52.232;5.196;2023-04-24T12:12:50;8.23;;;1.50;;
48268;SDS011;34088;52.232;5.196;2023-04-24T12:15:17;5.40;;;1.45;;
48268;SDS011;34088;52.232;5.196;2023-04-24T12:17:45;4.10;;;1.33;;
48268;SDS011;34088;52.232;5.196;2023-04-24T12:20:12;7.57;;;1.45;;
48268;SDS011;34088;52.232;5.196;2023-04-24T12:22:48;6.20;;;1.48;;
48268;SDS011;34088;52.232;5.196;2023-04-24T12:25:22;11.23;;;1.77;;
48268;SDS011;34088;52.232;5.196;2023-04-24T12:30:30;9.32;;;1.63;;
48268;SDS011;34088;52.232;5.196;2023-04-24T12:32:58;5.97;;;1.60;;
48268;SDS011;34088;52.232;5.196;2023-04-24T12:35:25;8.05;;;1.75;;
48268;SDS011;34088;52.232;5.196;2023-04-24T12:37:52;12.25;;;2.55;;
48268;SDS011;34088;52.232;5.196;2023-04-24T12:40:19;11.13;;;2.47;;
48268;SDS011;34088;52.232;5.196;2023-04-24T12:42:46;9.60;;;2.88;;
48268;SDS011;34088;52.232;5.196;2023-04-24T12:45:12;21.30;;;3.40;;
48268;SDS011;34088;52.232;5.196;2023-04-24T12:47:38;12.80;;;3.17;;
48268;SDS011;34088;52.232;5.196;2023-04-24T12:50:05;12.38;;;3.20;;
48268;SDS011;34088;52.232;5.196;2023-04-24T12:52:32;14.10;;;3.33;;
48268;SDS011;34088;52.232;5.196;2023-04-24T12:54:59;20.05;;;3.50;;
48268;SDS011;34088;52.232;5.196;2023-04-24T12:57:26;18.58;;;3.35;;
48268;SDS011;34088;52.232;5.196;2023-04-24T12:59:56;16.70;;;3.88;;
48268;SDS011;34088;52.232;5.196;2023-04-24T13:02:23;15.93;;;4.00;;
48268;SDS011;34088;52.232;5.196;2023-04-24T13:04:49;16.52;;;3.10;;
48268;SDS011;34088;52.232;5.196;2023-04-24T13:07:15;16.50;;;3.58;;
48268;SDS011;34088;52.232;5.196;2023-04-24T13:09:42;14.32;;;3.08;;
48268;SDS011;34088;52.232;5.196;2023-04-24T13:12:09;12.52;;;3.38;;
48268;SDS011;34088;52.232;5.196;2023-04-24T13:14:35;13.13;;;3.30;;
48268;SDS011;34088;52.232;5.196;2023-04-24T13:17:00;15.25;;;3.10;;
48268;SDS011;34088;52.232;5.196;2023-04-24T13:19:26;11.38;;;2.83;;
48268;SDS011;34088;52.232;5.196;2023-04-24T13:21:52;12.02;;;2.63;;
48268;SDS011;34088;52.232;5.196;2023-04-24T13:24:22;12.85;;;2.90;;
48268;SDS011;34088;52.232;5.196;2023-04-24T13:26:54;14.20;;;3.05;;
48268;SDS011;34088;52.232;5.196;2023-04-24T13:29:21;11.45;;;3.20;;
48268;SDS011;34088;52.232;5.196;2023-04-24T13:31:49;17.98;;;3.78;;
48268;SDS011;34088;52.232;5.196;2023-04-24T13:34:15;15.70;;;3.53;;
48268;SDS011;34088;52.232;5.196;2023-04-24T13:36:41;14.52;;;3.65;;
48268;SDS011;34088;52.232;5.196;2023-04-24T13:39:06;13.77;;;3.75;;
48268;SDS011;34088;52.232;5.196;2023-04-24T13:41:32;13.35;;;3.15;;
48268;SDS011;34088;52.232;5.196;2023-04-24T13:43:58;13.48;;;3.42;;
48268;SDS011;34088;52.232;5.196;2023-04-24T13:46:24;15.00;;;3.72;;
48268;SDS011;34088;52.232;5.196;2023-04-24T13:48:49;13.70;;;3.30;;
48268;SDS011;34088;52.232;5.196;2023-04-24T13:51:15;14.35;;;3.22;;
48268;SDS011;34088;52.232;5.196;2023-04-24T13:53:41;11.07;;;3.10;;
48268;SDS011;34088;52.232;5.196;2023-04-24T13:56:06;16.67;;;3.63;;
48268;SDS011;34088;52.232;5.196;2023-04-24T13:58:32;13.20;;;3.40;;
48268;SDS011;34088;52.232;5.196;2023-04-24T14:00:58;14.90;;;2.88;;
48268;SDS011;34088;52.232;5.196;2023-04-24T14:03:23;12.25;;;3.20;;
48268;SDS011;34088;52.232;5.196;2023-04-24T14:05:49;12.73;;;3.38;;
48268;SDS011;34088;52.232;5.196;2023-04-24T14:08:15;16.48;;;3.63;;
48268;SDS011;34088;52.232;5.196;2023-04-24T14:10:41;13.93;;;3.63;;
48268;SDS011;34088;52.232;5.196;2023-04-24T14:13:07;14.88;;;3.97;;
48268;SDS011;34088;52.232;5.196;2023-04-24T14:15:33;15.93;;;4.00;;
48268;SDS011;34088;52.232;5.196;2023-04-24T14:18:00;16.77;;;4.57;;
48268;SDS011;34088;52.232;5.196;2023-04-24T14:20:26;15.10;;;3.42;;
48268;SDS011;34088;52.232;5.196;2023-04-24T14:22:52;14.00;;;3.72;;
48268;SDS011;34088;52.232;5.196;2023-04-24T14:25:18;14.23;;;3.80;;
48268;SDS011;34088;52.232;5.196;2023-04-24T14:27:44;12.55;;;3.60;;
48268;SDS011;34088;52.232;5.196;2023-04-24T14:30:10;17.63;;;4.15;;
48268;SDS011;34088;52.232;5.196;2023-04-24T14:32:38;14.07;;;3.85;;
48268;SDS011;34088;52.232;5.196;2023-04-24T14:35:04;11.13;;;3.08;;
48268;SDS011;34088;52.232;5.196;2023-04-24T14:37:31;7.85;;;2.72;;
48268;SDS011;34088;52.232;5.196;2023-04-24T14:39:56;13.07;;;3.22;;
48268;SDS011;34088;52.232;5.196;2023-04-24T14:42:22;7.60;;;2.53;;
48268;SDS011;34088;52.232;5.196;2023-04-24T14:44:48;8.57;;;3.20;;
48268;SDS011;34088;52.232;5.196;2023-04-24T14:47:13;7.95;;;3.10;;
48268;SDS011;34088;52.232;5.196;2023-04-24T14:49:39;15.55;;;3.35;;
48268;SDS011;34088;52.232;5.196;2023-04-24T14:52:04;11.02;;;3.63;;
48268;SDS011;34088;52.232;5.196;2023-04-24T14:54:30;12.30;;;3.53;;
48268;SDS011;34088;52.232;5.196;2023-04-24T14:56:56;15.15;;;4.00;;
48268;SDS011;34088;52.232;5.196;2023-04-24T14:59:26;13.90;;;3.85;;
48268;SDS011;34088;52.232;5.196;2023-04-24T15:01:52;13.35;;;3.70;;
48268;SDS011;34088;52.232;5.196;2023-04-24T15:04:22;14.10;;;3.80;;
48268;SDS011;34088;52.232;5.196;2023-04-24T15:06:51;12.48;;;3.88;;
48268;SDS011;34088;52.232;5.196;2023-04-24T15:09:18;17.17;;;4.25;;
48268;SDS011;34088;52.232;5.196;2023-04-24T15:11:44;18.75;;;4.30;;